Time;durP1;ratioP1;P1;durP2;ratioP2;P2;SDS_P1;SDS_P2;PMS_P1;PMS_P2;Temp;Humidity;BMP_temperature;BMP_pressure;BME280_temperature;BME280_humidity;BME280_pressure;Samples;Min_cycle;Max_cycle;Signal;HPM_P1;HPM_P2
2020/12/01 00:01:00;;;;;;;47.85;23.35;;;;;;;3.09;100.00;100945.44;6306614;28;20071;-66
2020/12/01 00:04:01;;;;;;;46.50;22.15;;;;;;;3.20;100.00;100953.91;6322556;28;20457;-66
2020/12/01 00:07:02;;;;;;;45.17;20.48;;;;;;;3.16;100.00;100950.50;6322097;28;20052;-66
2020/12/01 00:10:03;;;;;;;46.60;22.92;;;;;;;3.13;100.00;100950.53;6322124;28;20424;-66
2020/12/01 00:13:04;;;;;;;48.15;21.20;;;;;;;3.20;100.00;100951.28;6322304;28;20071;-66
2020/12/01 00:16:09;;;;;;;39.50;19.38;;;;;;;3.24;100.00;100946.00;6322231;28;20048;-66
2020/12/01 00:19:10;;;;;;;44.13;21.08;;;;;;;3.19;100.00;100942.66;6321783;28;20048;-66
2020/12/01 00:22:12;;;;;;;40.38;19.48;;;;;;;3.30;100.00;100939.84;6321146;28;20063;-66
2020/12/01 00:25:14;;;;;;;36.83;18.85;;;;;;;3.37;100.00;100940.59;6322026;28;20144;-66
2020/12/01 00:28:15;;;;;;;32.55;17.60;;;;;;;3.45;100.00;100936.06;6321906;28;20768;-66
2020/12/01 00:31:18;;;;;;;36.55;17.50;;;;;;;3.38;100.00;100935.34;6321765;28;20056;-66
2020/12/01 00:34:19;;;;;;;31.67;16.25;;;;;;;3.46;100.00;100933.44;6322099;28;20523;-67
2020/12/01 00:37:20;;;;;;;35.75;19.05;;;;;;;3.40;100.00;100923.16;6321083;28;20044;-66
2020/12/01 00:40:22;;;;;;;32.55;16.63;;;;;;;3.47;100.00;100923.91;6321366;28;20052;-66
2020/12/01 00:43:22;;;;;;;37.47;18.05;;;;;;;3.44;100.00;100921.38;6321884;28;20484;-66
2020/12/01 00:46:24;;;;;;;35.95;18.17;;;;;;;3.47;100.00;100922.16;6321367;28;20059;-66
2020/12/01 00:49:25;;;;;;;37.53;18.58;;;;;;;3.41;100.00;100914.50;6321026;28;20409;-66
2020/12/01 00:52:26;;;;;;;37.22;17.98;;;;;;;3.49;100.00;100909.13;6320913;28;20052;-66
2020/12/01 00:55:27;;;;;;;36.92;17.73;;;;;;;3.47;100.00;100900.53;6321440;28;20450;-66
2020/12/01 00:58:28;;;;;;;30.17;17.13;;;;;;;3.50;100.00;100897.88;6321181;28;20055;-66
2020/12/01 01:01:30;;;;;;;29.25;16.35;;;;;;;3.58;100.00;100893.34;6307278;28;20075;-66
2020/12/01 01:04:31;;;;;;;32.50;16.48;;;;;;;3.50;100.00;100884.88;6296429;28;20052;-66
2020/12/01 01:07:32;;;;;;;30.33;16.25;;;;;;;3.62;100.00;100887.19;6295622;28;20455;-66
2020/12/01 01:10:34;;;;;;;32.67;16.70;;;;;;;3.60;100.00;100888.97;6295909;28;20172;-66
2020/12/01 01:13:35;;;;;;;34.75;18.35;;;;;;;3.49;100.00;100889.19;6296163;28;20048;-66
2020/12/01 01:16:40;;;;;;;32.25;17.60;;;;;;;3.52;100.00;100896.09;6304542;28;20044;-66
2020/12/01 01:19:42;;;;;;;34.17;17.67;;;;;;;3.60;100.00;100886.38;6320612;28;20465;-66
2020/12/01 01:22:43;;;;;;;35.05;17.77;;;;;;;3.68;100.00;100884.47;6314975;28;20055;-66
2020/12/01 01:25:44;;;;;;;34.65;18.13;;;;;;;3.58;100.00;100890.75;6320969;28;20105;-66
2020/12/01 01:28:44;;;;;;;30.98;17.23;;;;;;;3.63;100.00;100883.69;6320374;28;20044;-66
2020/12/01 01:31:46;;;;;;;33.45;17.20;;;;;;;3.60;100.00;100894.19;6320907;28;20047;-66
2020/12/01 01:34:47;;;;;;;33.83;17.98;;;;;;;3.65;100.00;100884.53;6320945;28;20122;-66
2020/12/01 01:37:48;;;;;;;33.65;17.80;;;;;;;3.59;100.00;100887.28;6320626;28;20060;-66
2020/12/01 01:40:49;;;;;;;36.25;18.58;;;;;;;3.53;100.00;100887.38;6320458;28;20086;-64
2020/12/01 01:43:49;;;;;;;35.55;19.33;;;;;;;3.55;100.00;100886.47;6320946;28;20055;-66
2020/12/01 01:46:54;;;;;;;39.15;19.52;;;;;;;3.58;100.00;100888.13;6321861;28;20048;-66
2020/12/01 01:49:59;;;;;;;35.63;18.40;;;;;;;3.60;100.00;100878.59;6325598;28;20051;-66
2020/12/01 01:52:59;;;;;;;38.80;19.10;;;;;;;3.67;100.00;100876.69;6325330;28;20048;-66
2020/12/01 01:56:05;;;;;;;37.60;19.77;;;;;;;3.67;100.00;100874.09;6325513;28;20084;-66
2020/12/01 01:59:07;;;;;;;36.72;18.77;;;;;;;3.66;100.00;100868.03;6325080;28;20048;-66
2020/12/01 02:02:09;;;;;;;39.03;19.30;;;;;;;3.74;100.00;100863.53;6325808;28;20059;-66
2020/12/01 02:05:10;;;;;;;36.67;18.60;;;;;;;3.68;100.00;100871.47;6325504;28;20048;-67
2020/12/01 02:08:11;;;;;;;39.40;18.45;;;;;;;3.72;100.00;100865.28;6325389;28;20416;-64
2020/12/01 02:11:11;;;;;;;35.25;19.20;;;;;;;3.67;100.00;100874.94;6325121;28;20518;-66
2020/12/01 02:14:16;;;;;;;36.15;18.63;;;;;;;3.65;100.00;100863.75;6325372;28;20419;-66
2020/12/01 02:17:22;;;;;;;36.10;18.83;;;;;;;3.77;100.00;100863.47;6324824;28;20051;-66
2020/12/01 02:20:23;;;;;;;35.67;18.90;;;;;;;3.71;100.00;100867.94;6324622;28;20051;-66
2020/12/01 02:23:24;;;;;;;31.42;17.90;;;;;;;3.72;100.00;100867.88;6324655;28;20086;-66
2020/12/01 02:26:27;;;;;;;29.55;16.88;;;;;;;3.78;100.00;100861.72;6324465;28;20462;-66
2020/12/01 02:29:30;;;;;;;32.95;17.95;;;;;;;3.72;100.00;100864.44;6324564;28;20063;-66
2020/12/01 02:32:31;;;;;;;36.28;18.67;;;;;;;3.72;100.00;100854.88;6324949;28;20062;-66
2020/12/01 02:35:32;;;;;;;32.80;18.10;;;;;;;3.71;100.00;100863.59;6324820;28;20044;-66
2020/12/01 02:38:33;;;;;;;35.03;17.25;;;;;;;3.78;100.00;100851.31;6303261;28;20047;-66
2020/12/01 02:41:34;;;;;;;37.58;18.05;;;;;;;3.74;100.00;100849.69;6299312;28;20389;-66
2020/12/01 02:44:35;;;;;;;30.42;17.10;;;;;;;3.81;100.00;100843.44;6299527;28;20045;-66
2020/12/01 02:47:36;;;;;;;30.70;17.13;;;;;;;3.80;100.00;100841.72;6298800;28;20520;-66
2020/12/01 02:50:37;;;;;;;32.00;16.35;;;;;;;3.75;100.00;100841.84;6299346;28;20531;-66
2020/12/01 02:53:38;;;;;;;29.23;17.05;;;;;;;3.80;100.00;100842.56;6314872;22;20045;-70
2020/12/01 02:56:39;;;;;;;27.48;15.05;;;;;;;3.85;100.00;100841.63;6273221;28;20124;-70
2020/12/01 02:59:40;;;;;;;27.05;15.60;;;;;;;3.87;100.00;100845.91;6270994;28;20049;-70
2020/12/01 03:02:41;;;;;;;28.17;16.20;;;;;;;3.82;100.00;100842.56;6273783;28;20057;-70
2020/12/01 03:05:42;;;;;;;27.13;15.75;;;;;;;3.85;100.00;100844.22;6273850;28;20057;-70
2020/12/01 03:08:43;;;;;;;26.45;15.45;;;;;;;3.86;100.00;100848.50;6272852;28;20423;-70
2020/12/01 03:11:45;;;;;;;25.02;15.25;;;;;;;3.92;100.00;100846.63;6273661;28;20053;-70
2020/12/01 03:14:46;;;;;;;26.08;15.82;;;;;;;3.89;100.00;100848.44;6273888;28;20048;-70
2020/12/01 03:17:47;;;;;;;28.13;14.98;;;;;;;3.94;100.00;100839.63;6273206;28;20417;-70
2020/12/01 03:20:48;;;;;;;23.10;14.43;;;;;;;3.86;100.00;100835.53;6273273;28;20057;-69
2020/12/01 03:23:49;;;;;;;23.25;14.88;;;;;;;3.87;100.00;100845.06;6273661;28;20049;-69
2020/12/01 03:26:50;;;;;;;27.30;15.35;;;;;;;3.97;100.00;100834.38;6273281;28;20136;-69
2020/12/01 03:29:51;;;;;;;27.23;15.48;;;;;;;4.03;100.00;100828.16;6272590;28;20057;-69
2020/12/01 03:32:52;;;;;;;28.50;16.60;;;;;;;3.88;100.00;100832.00;6273496;28;20049;-69
2020/12/01 03:35:53;;;;;;;24.40;15.25;;;;;;;3.92;100.00;100833.63;6273241;28;20060;-69
2020/12/01 03:38:53;;;;;;;26.55;14.57;;;;;;;3.88;100.00;100834.59;6272579;28;20077;-69
2020/12/01 03:41:55;;;;;;;29.45;16.52;;;;;;;3.89;100.00;100835.47;6273446;28;20052;-69
2020/12/01 03:44:56;;;;;;;26.20;15.40;;;;;;;3.94;100.00;100842.25;6272755;28;20044;-70
2020/12/01 03:47:57;;;;;;;29.88;16.63;;;;;;;3.90;100.00;100832.81;6272730;28;20045;-69
2020/12/01 03:50:58;;;;;;;26.20;16.70;;;;;;;3.92;100.00;100836.25;6272867;28;20056;-69
2020/12/01 03:53:59;;;;;;;27.13;16.35;;;;;;;3.88;100.00;100834.59;6272728;28;20132;-71
2020/12/01 03:57:01;;;;;;;32.22;17.95;;;;;;;3.89;100.00;100838.06;6272855;28;20417;-69
2020/12/01 04:00:02;;;;;;;27.45;16.15;;;;;;;3.94;100.00;100828.38;6272286;28;20048;-69
2020/12/01 04:03:03;;;;;;;27.02;16.40;;;;;;;4.03;100.00;100835.97;6272440;28;20421;-69
2020/12/01 04:06:04;;;;;;;25.23;16.08;;;;;;;3.99;100.00;100829.13;6272418;28;20131;-69
2020/12/01 04:09:05;;;;;;;27.83;15.73;;;;;;;4.00;100.00;100836.06;6272409;28;20072;-69
2020/12/01 04:12:07;;;;;;;25.10;15.00;;;;;;;3.99;100.00;100829.97;6271285;28;20045;-69
2020/12/01 04:15:08;;;;;;;27.10;16.65;;;;;;;3.94;100.00;100828.38;6264019;28;20057;-69
2020/12/01 04:18:09;;;;;;;22.73;14.77;;;;;;;4.03;100.00;100834.22;6268825;28;20083;-71
2020/12/01 04:21:09;;;;;;;22.95;13.85;;;;;;;4.07;100.00;100824.59;6271866;28;20049;-69
2020/12/01 04:24:10;;;;;;;22.63;14.27;;;;;;;4.09;100.00;100830.63;6272229;28;20413;-69
2020/12/01 04:27:14;;;;;;;21.90;14.98;;;;;;;4.16;100.00;100829.56;6271421;28;20049;-71
2020/12/01 04:30:15;;;;;;;22.90;14.95;;;;;;;4.05;100.00;100836.78;6271935;28;20068;-71
2020/12/01 04:33:16;;;;;;;25.95;15.65;;;;;;;3.98;100.00;100833.47;6271943;28;20044;-69
2020/12/01 04:36:17;;;;;;;26.73;16.10;;;;;;;3.97;100.00;100834.38;6271955;28;20049;-69
2020/12/01 04:39:17;;;;;;;25.80;15.50;;;;;;;3.99;100.00;100837.78;6271535;28;20498;-69
2020/12/01 04:42:21;;;;;;;25.10;14.35;;;;;;;4.11;100.00;100836.63;6272091;28;20086;-69
2020/12/01 04:45:21;;;;;;;23.75;14.40;;;;;;;4.05;100.00;100832.44;6271811;28;20422;-69
2020/12/01 04:48:32;;;;;;;26.38;14.40;;;;;;;4.03;100.00;100829.00;6271333;28;20076;-69
2020/12/01 04:51:51;;;;;;;29.33;15.85;;;;;;;4.02;100.00;100835.13;6271370;28;20441;-69
2020/12/01 04:55:14;;;;;;;23.65;15.13;;;;;;;4.01;100.00;100837.75;6246790;28;20053;-71
2020/12/01 04:58:53;;;;;;;23.70;14.10;;;;;;;4.07;100.00;100841.03;6267981;28;20045;-68
2020/12/01 05:02:24;;;;;;;23.23;14.93;;;;;;;4.18;100.00;100837.31;6271746;28;20045;-69
2020/12/01 05:05:40;;;;;;;23.15;15.18;;;;;;;4.08;100.00;100834.94;6271549;28;20417;-69
2020/12/01 05:08:47;;;;;;;21.80;14.77;;;;;;;4.03;100.00;100836.81;6270638;28;20139;-69
2020/12/01 05:11:54;;;;;;;22.92;14.70;;;;;;;4.05;100.00;100842.84;6271444;28;20095;-69
2020/12/01 05:15:00;;;;;;;27.70;16.23;;;;;;;4.03;100.00;100846.38;6270967;28;20056;-69
2020/12/01 05:18:15;;;;;;;25.45;16.05;;;;;;;4.10;100.00;100850.53;6271082;28;20060;-69
2020/12/01 05:21:21;;;;;;;22.48;14.77;;;;;;;4.12;100.00;100848.72;6257710;28;20046;-69
2020/12/01 05:24:22;;;;;;;24.73;14.68;;;;;;;4.10;100.00;100850.53;6268811;28;20464;-69
2020/12/01 05:27:27;;;;;;;22.88;14.80;;;;;;;4.19;100.00;100849.44;6270139;28;20041;-69
2020/12/01 05:30:28;;;;;;;23.02;14.18;;;;;;;4.14;100.00;100846.13;6270824;28;20052;-69
2020/12/01 05:33:31;;;;;;;23.70;15.40;;;;;;;4.07;100.00;100848.84;6270802;28;20052;-69
2020/12/01 05:36:34;;;;;;;22.85;14.68;;;;;;;4.13;100.00;100858.25;6270621;28;20049;-69
2020/12/01 05:39:35;;;;;;;22.40;13.77;;;;;;;4.10;100.00;100858.34;6270576;28;20049;-69
2020/12/01 05:42:42;;;;;;;23.42;14.75;;;;;;;4.15;100.00;100863.41;6271047;28;20433;-69
2020/12/01 05:45:43;;;;;;;22.95;14.90;;;;;;;4.12;100.00;100863.50;6270778;28;20462;-70
2020/12/01 05:48:53;;;;;;;23.00;15.10;;;;;;;4.25;100.00;100862.28;6270142;28;20045;-70
2020/12/01 05:51:59;;;;;;;23.60;14.52;;;;;;;4.25;100.00;100872.69;6270294;28;20135;-70
2020/12/01 05:55:12;;;;;;;25.73;14.45;;;;;;;4.16;100.00;100880.72;6245883;28;20052;-70
2020/12/01 05:58:13;;;;;;;23.10;14.07;;;;;;;4.16;100.00;100881.59;6245886;28;20046;-70
2020/12/01 06:01:15;;;;;;;24.30;14.27;;;;;;;4.22;100.00;100878.81;6245524;28;20053;-70
2020/12/01 06:04:19;;;;;;;23.48;14.80;;;;;;;4.29;100.00;100890.78;6245701;28;20537;-70
2020/12/01 06:07:25;;;;;;;24.10;13.88;;;;;;;4.25;100.00;100896.09;6245286;28;20079;-69
2020/12/01 06:10:35;;;;;;;21.65;14.32;;;;;;;4.21;100.00;100895.31;6245789;28;20215;-70
2020/12/01 06:13:41;;;;;;;;;;;;;;;4.28;100.00;100894.28;6246153;28;20053;-70
2020/12/01 06:16:50;;;;;;;24.05;14.52;;;;;;;4.22;100.00;100902.22;6255098;28;19924;-70
2020/12/01 06:19:58;;;;;;;23.77;15.38;;;;;;;4.16;100.00;100899.78;6269944;28;20051;-70
2020/12/01 06:23:37;;;;;;;26.77;15.32;;;;;;;4.13;100.00;100904.19;6270468;28;20055;-70
2020/12/01 06:27:05;;;;;;;24.63;14.20;;;;;;;4.23;100.00;100911.75;6269974;28;20045;-70
2020/12/01 06:30:36;;;;;;;20.75;13.55;;;;;;;4.23;100.00;100914.38;6269520;28;20056;-70
2020/12/01 06:34:02;;;;;;;23.17;14.57;;;;;;;4.18;100.00;100911.03;6270854;28;20512;-70
2020/12/01 06:37:19;;;;;;;20.23;13.32;;;;;;;4.24;100.00;100910.84;6274894;28;20045;-70
2020/12/01 06:40:37;;;;;;;23.17;14.38;;;;;;;4.27;100.00;100909.91;6274288;28;20053;-72
2020/12/01 06:43:42;;;;;;;22.65;14.10;;;;;;;4.20;100.00;100922.22;6274765;28;20052;-70
2020/12/01 06:46:45;;;;;;;22.33;14.10;;;;;;;4.24;100.00;100923.00;6274210;28;20394;-72
2020/12/01 06:49:46;;;;;;;23.55;13.88;;;;;;;4.20;100.00;100917.03;6274018;28;20079;-70
2020/12/01 06:52:55;;;;;;;24.13;15.50;;;;;;;4.25;100.00;100919.50;6274477;28;20052;-70
2020/12/01 06:55:57;;;;;;;22.75;13.93;;;;;;;4.26;100.00;100923.81;6273531;28;20052;-71
2020/12/01 06:59:05;;;;;;;22.63;14.00;;;;;;;4.23;100.00;100927.38;6274036;28;20603;-71
2020/12/01 07:02:16;;;;;;;22.08;14.00;;;;;;;4.30;100.00;100930.66;6274429;28;20067;-71
2020/12/01 07:05:30;;;;;;;22.05;13.30;;;;;;;4.27;100.00;100931.59;6274059;28;20052;-71
2020/12/01 07:08:31;;;;;;;20.40;12.95;;;;;;;4.38;100.00;100930.47;6273959;28;20052;-70
2020/12/01 07:11:34;;;;;;;23.63;13.40;;;;;;;4.27;100.00;100938.53;6272072;28;20547;-71
2020/12/01 07:14:41;;;;;;;21.17;13.60;;;;;;;4.25;100.00;100943.78;6273753;28;20052;-71
2020/12/01 07:17:50;;;;;;;25.15;14.15;;;;;;;4.29;100.00;100952.38;6273435;28;20083;-71
2020/12/01 07:21:22;;;;;;;21.05;13.57;;;;;;;4.29;100.00;100954.97;6273517;28;20049;-71
2020/12/01 07:24:38;;;;;;;25.15;14.68;;;;;;;4.31;100.00;100966.19;6238552;28;20053;-71
2020/12/01 07:27:51;;;;;;;26.15;15.13;;;;;;;4.30;100.00;100954.91;6248683;28;20056;-71
2020/12/01 07:30:57;;;;;;;21.60;13.52;;;;;;;4.43;100.00;100967.66;6266751;28;20062;-71
2020/12/01 07:34:01;;;;;;;23.83;14.13;;;;;;;4.41;100.00;100966.84;6273490;28;20509;-71
2020/12/01 07:37:28;;;;;;;24.90;12.75;;;;;;;4.40;100.00;100976.38;6273158;28;20061;-71
2020/12/01 07:40:32;;;;;;;22.00;13.25;;;;;;;4.49;100.00;100976.13;6272935;28;20045;-71
2020/12/01 07:43:33;;;;;;;23.67;14.20;;;;;;;4.42;100.00;100982.41;6273415;28;20056;-70
2020/12/01 07:46:40;;;;;;;23.02;13.43;;;;;;;4.46;100.00;100970.19;6272779;28;20543;-71
2020/12/01 07:49:41;;;;;;;22.02;13.70;;;;;;;4.49;100.00;100978.75;6272804;28;20135;-71
2020/12/01 07:52:47;;;;;;;22.20;13.73;;;;;;;4.42;100.00;100979.81;6272817;28;20060;-71
2020/12/01 07:55:57;;;;;;;23.38;14.27;;;;;;;4.44;100.00;100988.41;6272856;28;20055;-71
2020/12/01 07:59:01;;;;;;;25.23;14.57;;;;;;;4.43;100.00;100999.72;6272724;28;20060;-71
2020/12/01 08:02:05;;;;;;;24.85;14.50;;;;;;;4.48;100.00;101000.47;6272823;28;20053;-71
2020/12/01 08:05:11;;;;;;;27.35;15.50;;;;;;;4.54;100.00;101000.34;6272749;28;20056;-71
2020/12/01 08:08:15;;;;;;;28.48;15.88;;;;;;;4.48;100.00;101008.25;6272276;28;20044;-71
2020/12/01 08:11:20;;;;;;;23.85;15.02;;;;;;;4.50;100.00;101014.31;6272453;28;20060;-71
2020/12/01 08:14:21;;;;;;;23.70;14.38;;;;;;;4.48;100.00;101010.00;6272354;28;20544;-71
2020/12/01 08:17:27;;;;;;;27.85;16.30;;;;;;;4.50;100.00;101016.91;6272355;28;20068;-73
2020/12/01 08:20:29;;;;;;;26.95;15.90;;;;;;;4.48;100.00;101025.63;6271987;28;20060;-71
2020/12/01 08:23:32;;;;;;;29.80;16.08;;;;;;;4.53;100.00;101026.38;6271734;28;20057;-71
2020/12/01 08:26:36;;;;;;;31.25;17.42;;;;;;;4.52;100.00;101032.47;6269504;28;20056;-70
2020/12/01 08:29:39;;;;;;;32.58;17.80;;;;;;;4.58;100.00;101030.56;6271297;28;20041;-69
2020/12/01 08:32:44;;;;;;;32.20;16.88;;;;;;;4.62;100.00;101046.97;6271913;28;20045;-71
2020/12/01 08:35:54;;;;;;;37.40;17.58;;;;;;;4.60;100.00;101045.31;6272339;28;20041;-69
2020/12/01 08:39:14;;;;;;;32.42;17.50;;;;;;;4.58;100.00;101048.78;6271583;28;20049;-68
2020/12/01 08:42:22;;;;;;;33.25;17.40;;;;;;;4.61;100.00;101045.28;6272035;28;20045;-69
2020/12/01 08:45:38;;;;;;;35.15;18.65;;;;;;;4.65;100.00;101061.69;6271712;28;20064;-69
2020/12/01 08:48:47;;;;;;;29.83;17.55;;;;;;;4.74;100.00;101054.50;6270677;28;20041;-70
2020/12/01 08:51:53;;;;;;;29.67;17.35;;;;;;;4.76;100.00;101059.66;6263465;28;20045;-69
2020/12/01 08:54:58;;;;;;;28.13;16.50;;;;;;;4.74;100.00;101067.50;6279837;22;20053;-71
2020/12/01 08:58:09;;;;;;;33.10;17.70;;;;;;;4.71;100.00;101066.72;6246507;28;20049;-71
2020/12/01 09:01:12;;;;;;;32.20;17.02;;;;;;;4.73;100.00;101078.81;6244905;28;20108;-71
2020/12/01 09:04:24;;;;;;;33.28;17.15;;;;;;;4.78;100.00;101076.97;6246736;28;20485;-72
2020/12/01 09:07:26;;;;;;;26.95;15.60;;;;;;;4.79;100.00;101083.88;6246228;28;20081;-71
2020/12/01 09:10:30;;;;;;;30.73;16.65;;;;;;;4.78;100.00;101083.91;6246272;28;20060;-71
2020/12/01 09:13:33;;;;;;;29.02;16.35;;;;;;;4.76;100.00;101083.94;6246789;28;20499;-71
2020/12/01 09:16:47;;;;;;;27.73;16.05;;;;;;;4.80;100.00;101087.34;6246250;28;20064;-72
2020/12/01 09:19:59;;;;;;;27.58;15.85;;;;;;;4.84;100.00;101095.03;6246433;28;20482;-71
2020/12/01 09:23:07;;;;;;;29.15;16.50;;;;;;;4.89;100.00;101101.88;6245991;28;20429;-72
2020/12/01 09:26:16;;;;;;;26.40;15.27;;;;;;;5.05;100.00;101092.81;6246336;28;20064;-72
2020/12/01 09:29:17;;;;;;;29.27;15.15;;;;;;;4.93;100.00;101098.31;6245948;28;20052;-72
2020/12/01 09:32:22;;;;;;;29.25;15.63;;;;;;;4.96;100.00;101098.25;6246572;28;20132;-71
2020/12/01 09:35:24;;;;;;;28.48;15.23;;;;;;;5.01;100.00;101106.81;6246206;28;20048;-71
2020/12/01 09:38:25;;;;;;;24.52;14.57;;;;;;;5.11;100.00;101103.06;6246282;28;20172;-72
2020/12/01 09:41:27;;;;;;;25.75;14.85;;;;;;;5.15;100.00;101114.28;6245940;28;20049;-71
2020/12/01 09:48:00;;;;;;;24.13;14.15;;;;;;;5.00;100.00;101120.72;6170072;28;20082;-71
2020/12/01 09:51:03;;;;;;;20.02;12.68;;;;;;;5.09;100.00;101120.50;6245640;28;20052;-72
2020/12/01 09:54:16;;;;;;;24.67;14.40;;;;;;;5.06;100.00;101117.97;6245950;28;20449;-72
2020/12/01 09:57:23;;;;;;;24.05;13.55;;;;;;;5.03;100.00;101126.69;6245973;28;20135;-71
2020/12/01 10:00:35;;;;;;;22.75;12.52;;;;;;;5.09;100.00;101118.75;6245797;28;20053;-71
2020/12/01 10:34:11;;;;;;;20.33;12.30;;;;;;;5.33;100.00;101148.53;6249825;28;20513;-71
2020/12/01 10:37:11;;;;;;;18.92;11.18;;;;;;;5.18;100.00;101154.13;6245355;28;20410;-70
2020/12/01 10:40:13;;;;;;;23.90;12.65;;;;;;;5.15;100.00;101155.94;6249474;28;20096;-71
2020/12/01 10:43:14;;;;;;;25.77;12.45;;;;;;;5.14;100.00;101162.91;6250080;28;20060;-71
2020/12/01 10:46:15;;;;;;;23.63;12.63;;;;;;;5.16;100.00;101163.72;6248946;28;20061;-71
2020/12/01 10:49:17;;;;;;;21.67;12.30;;;;;;;5.21;100.00;101174.88;6247988;28;20052;-72
2020/12/01 10:52:19;;;;;;;17.38;11.35;;;;;;;5.23;100.00;101162.69;6248798;28;20045;-72
2020/12/01 10:55:23;;;;;;;21.02;10.98;;;;;;;5.25;100.00;101175.66;6248735;28;20049;-72
2020/12/01 10:58:24;;;;;;;19.52;11.57;;;;;;;5.15;100.00;101174.19;6249234;28;20045;-72
2020/12/01 11:01:25;;;;;;;21.23;11.38;;;;;;;5.17;100.00;101177.59;6249059;28;20411;-71
2020/12/01 11:04:26;;;;;;;20.35;12.32;;;;;;;5.13;100.00;101174.19;6249503;28;20046;-72
2020/12/01 11:07:26;;;;;;;18.33;11.40;;;;;;;5.18;100.00;101179.31;6249019;28;20429;-72
2020/12/01 11:10:28;;;;;;;17.75;10.40;;;;;;;5.24;100.00;101174.81;6249065;28;20053;-72
2020/12/01 11:13:29;;;;;;;19.85;11.00;;;;;;;5.16;100.00;101179.34;6249214;28;20053;-72
2020/12/01 11:16:30;;;;;;;21.08;11.70;;;;;;;5.20;100.00;101182.75;6246924;28;20442;-72
2020/12/01 11:19:31;;;;;;;18.25;11.38;;;;;;;5.16;100.00;101184.56;6247488;28;20045;-71
2020/12/01 11:22:32;;;;;;;20.38;11.82;;;;;;;5.23;100.00;101185.28;6248676;28;20052;-72
2020/12/01 11:25:33;;;;;;;18.13;10.80;;;;;;;5.20;100.00;101183.59;6248937;28;20053;-71
2020/12/01 11:28:34;;;;;;;17.83;11.20;;;;;;;5.29;100.00;101188.59;6248470;28;20384;-70
2020/12/01 11:31:36;;;;;;;20.40;12.10;;;;;;;5.23;100.00;101190.50;6248943;28;20049;-71
2020/12/01 11:34:37;;;;;;;19.58;10.80;;;;;;;5.20;100.00;101195.78;6248903;28;20049;-71
2020/12/01 11:37:38;;;;;;;20.15;11.73;;;;;;;5.35;100.00;101190.19;6248602;28;20176;-71
2020/12/01 11:40:39;;;;;;;22.83;11.68;;;;;;;5.31;100.00;101194.63;6248239;28;20413;-71
2020/12/01 11:43:40;;;;;;;22.70;11.68;;;;;;;5.32;100.00;101201.56;6248686;28;20046;-71
2020/12/01 11:46:42;;;;;;;20.33;10.55;;;;;;;5.30;100.00;101205.94;6247747;28;20077;-72
2020/12/01 11:49:43;;;;;;;25.15;12.20;;;;;;;5.37;100.00;101208.41;6247676;28;20041;-71
2020/12/01 11:52:44;;;;;;;24.67;13.20;;;;;;;5.38;100.00;101202.28;6248165;28;20104;-71
2020/12/01 11:55:47;;;;;;;24.75;11.95;;;;;;;5.34;100.00;101209.31;6247892;28;20147;-71
2020/12/01 11:58:48;;;;;;;25.25;12.80;;;;;;;5.32;100.00;101217.19;6247488;28;20053;-70
2020/12/01 12:01:48;;;;;;;18.58;11.38;;;;;;;5.40;100.00;101223.94;6247920;28;20448;-71
2020/12/01 12:04:49;;;;;;;22.17;12.05;;;;;;;5.37;100.00;101227.50;6247926;28;20049;-71
2020/12/01 12:07:50;;;;;;;19.85;12.02;;;;;;;5.40;100.00;101229.16;6247898;28;20184;-72
2020/12/01 12:10:52;;;;;;;20.90;12.13;;;;;;;5.43;100.00;101231.69;6247718;28;20053;-71
2020/12/01 12:13:53;;;;;;;21.95;12.30;;;;;;;5.34;100.00;101243.19;6247571;28;20049;-71
2020/12/01 12:16:54;;;;;;;18.95;11.48;;;;;;;5.37;100.00;101247.50;6246763;28;20045;-71
2020/12/01 12:19:55;;;;;;;19.00;11.73;;;;;;;5.40;100.00;101252.63;6246359;28;20072;-71
2020/12/01 12:22:56;;;;;;;20.10;11.65;;;;;;;5.34;100.00;101254.47;6247564;28;20136;-71
2020/12/01 12:25:58;;;;;;;18.23;11.35;;;;;;;5.31;100.00;101256.28;6247006;28;20079;-71
2020/12/01 12:28:58;;;;;;;24.83;12.60;;;;;;;5.46;100.00;101257.69;6246897;28;20049;-71
2020/12/01 12:31:59;;;;;;;19.38;11.82;;;;;;;5.37;100.00;101266.59;6246269;28;20072;-71
2020/12/01 12:35:00;;;;;;;22.75;11.63;;;;;;;5.30;100.00;101267.63;6247429;28;20524;-71
2020/12/01 12:38:01;;;;;;;18.52;10.75;;;;;;;5.33;100.00;101275.38;6247244;28;20056;-71
2020/12/01 12:41:04;;;;;;;21.67;12.82;;;;;;;5.31;100.00;101278.03;6246675;28;20050;-71
2020/12/01 12:44:06;;;;;;;22.75;12.07;;;;;;;5.36;100.00;101283.13;6247141;28;20050;-71
2020/12/01 12:47:06;;;;;;;22.30;13.15;;;;;;;5.35;100.00;101279.63;6246630;28;20056;-70
2020/12/01 12:50:08;;;;;;;21.80;12.90;;;;;;;5.37;100.00;101282.22;6246437;28;20414;-72
2020/12/01 12:53:09;;;;;;;20.25;12.07;;;;;;;5.39;100.00;101280.44;6246913;28;20076;-71
2020/12/01 12:56:11;;;;;;;20.25;12.00;;;;;;;5.40;100.00;101286.50;6246577;28;20049;-71
2020/12/01 12:59:12;;;;;;;21.02;11.85;;;;;;;5.41;100.00;101289.09;6246549;28;20512;-71
2020/12/01 13:02:12;;;;;;;23.38;12.13;;;;;;;5.38;100.00;101296.97;6246859;28;20046;-71
2020/12/01 13:05:13;;;;;;;24.08;11.70;;;;;;;5.43;100.00;101302.06;6246737;28;20453;-71
2020/12/01 13:08:14;;;;;;;23.73;12.70;;;;;;;5.36;100.00;101311.78;6246452;28;20049;-71
2020/12/01 13:11:16;;;;;;;25.17;13.68;;;;;;;5.24;100.00;101307.69;6246353;28;20136;-70
2020/12/01 13:14:17;;;;;;;22.10;12.27;;;;;;;5.24;100.00;101305.09;6246621;28;20060;-71
2020/12/01 13:17:18;;;;;;;21.52;12.45;;;;;;;5.35;100.00;101312.66;6246247;28;20053;-71
2020/12/01 13:20:21;;;;;;;27.65;13.18;;;;;;;5.27;100.00;101318.06;6245833;28;20046;-71
2020/12/01 13:23:22;;;;;;;24.52;13.38;;;;;;;5.24;100.00;101327.69;6246419;28;20060;-71
2020/12/01 13:26:24;;;;;;;25.48;13.25;;;;;;;5.21;100.00;101331.22;6246031;28;20409;-71
2020/12/01 13:29:25;;;;;;;17.77;11.25;;;;;;;5.18;100.00;101340.84;6245829;28;20056;-71
2020/12/01 13:32:26;;;;;;;17.33;10.30;;;;;;;5.11;100.00;101345.34;6246288;28;20049;-71
2020/12/01 13:35:27;;;;;;;18.20;10.25;;;;;;;5.07;100.00;101347.13;6246533;28;20053;-71
2020/12/01 13:38:27;;;;;;;16.90;10.25;;;;;;;5.08;100.00;101359.25;6246185;28;20057;-71
2020/12/01 13:41:29;;;;;;;24.33;11.57;;;;;;;5.17;100.00;101368.63;6246012;28;20050;-71
2020/12/01 13:44:30;;;;;;;23.55;13.75;;;;;;;5.07;100.00;101374.94;6250761;28;20096;-71
2020/12/01 13:47:32;;;;;;;20.58;11.50;;;;;;;5.07;100.00;101372.34;6250906;28;20219;-71
2020/12/01 13:50:33;;;;;;;22.80;12.57;;;;;;;5.06;100.00;101375.84;6250801;28;20049;-71
2020/12/01 13:53:34;;;;;;;19.67;11.93;;;;;;;5.06;100.00;101378.44;6250883;28;20061;-71
2020/12/01 13:56:36;;;;;;;17.77;11.07;;;;;;;4.98;100.00;101375.13;6251173;28;20061;-71
2020/12/01 13:59:37;;;;;;;18.05;10.77;;;;;;;4.94;100.00;101389.94;6250589;28;20673;-71
2020/12/01 14:02:38;;;;;;;21.27;11.00;;;;;;;4.99;100.00;101389.84;6250724;28;20053;-71
2020/12/01 14:05:39;;;;;;;19.35;10.45;;;;;;;4.95;100.00;101396.91;6250907;28;20395;-71
2020/12/01 14:08:40;;;;;;;20.55;10.63;;;;;;;4.94;100.00;101391.69;6250007;28;20041;-71
2020/12/01 14:11:42;;;;;;;18.08;10.25;;;;;;;4.95;100.00;101402.09;6250317;28;20075;-71
2020/12/01 14:14:42;;;;;;;18.98;10.80;;;;;;;4.98;100.00;101412.44;6250292;28;20049;-71
2020/12/01 14:17:43;;;;;;;16.63;10.35;;;;;;;4.97;100.00;101408.13;6250294;28;20061;-71
2020/12/01 14:20:44;;;;;;;20.00;10.85;;;;;;;5.08;100.00;101411.38;6249728;28;20046;-71
2020/12/01 14:23:45;;;;;;;19.98;10.65;;;;;;;4.97;100.00;101423.75;6250361;28;20045;-71
2020/12/01 14:26:47;;;;;;;16.15;9.90;;;;;;;5.03;100.00;101434.03;6250014;28;20441;-70
2020/12/01 14:29:48;;;;;;;14.27;8.70;;;;;;;4.97;100.00;101434.19;6249699;28;20418;-70